ETX4083 KMFE-KDNA
Flight info
| Callsign | ETX4083 |
|---|---|
| Flight time | 1h 41m |
| Altitude | 43000 |
| Route | ELIZA V17 LRD KDLF LAEKE HUP ELP |
| Aircraft | C750/M-SBDE3FGHRWXY/S |
Departure
| Time | 2026-05-03 21:33 |
|---|---|
| Airport | McAllen Miller International Airport (KMFE) |
Arrival
| Time | 2026-05-03 23:14 |
|---|---|
| Airport | Doña Ana County International Jetport (KDNA) |
| Time | Latitude | Longitude | Altitude | Speed | Heading |
|---|---|---|---|---|---|
| 2026-05-03 21:10 | 26.17847 | -98.23544 | 103 ft | 0 kts | 271° |
| 2026-05-03 21:28 | 26.17841 | -98.23559 | 103 ft | 3 kts | 210° |
| 2026-05-03 21:29 | 26.17793 | -98.23567 | 104 ft | 11 kts | 180° |
| 2026-05-03 21:29 | 26.17693 | -98.23561 | 107 ft | 12 kts | 177° |
| 2026-05-03 21:29 | 26.17606 | -98.23566 | 106 ft | 18 kts | 186° |
| 2026-05-03 21:29 | 26.17482 | -98.23587 | 105 ft | 18 kts | 209° |
| 2026-05-03 21:30 | 26.17454 | -98.23668 | 106 ft | 12 kts | 230° |
| 2026-05-03 21:30 | 26.17366 | -98.23632 | 106 ft | 19 kts | 143° |
| 2026-05-03 21:30 | 26.17261 | -98.23538 | 107 ft | 18 kts | 142° |
| 2026-05-03 21:30 | 26.17143 | -98.23427 | 104 ft | 25 kts | 141° |
| 2026-05-03 21:31 | 26.17039 | -98.23370 | 103 ft | 7 kts | 205° |
| 2026-05-03 21:31 | 26.17030 | -98.23378 | 102 ft | 0 kts | 219° |
| 2026-05-03 21:31 | 26.17016 | -98.23391 | 102 ft | 7 kts | 220° |
| 2026-05-03 21:31 | 26.17000 | -98.23455 | 101 ft | 10 kts | 304° |
| 2026-05-03 21:32 | 26.17007 | -98.23463 | 101 ft | 0 kts | 315° |
| 2026-05-03 21:32 | 26.17291 | -98.23720 | 106 ft | 113 kts | 321° |
| 2026-05-03 21:33 | 26.18119 | -98.24445 | 285 ft | 165 kts | 324° |
| 2026-05-03 21:33 | 26.19090 | -98.25113 | 1063 ft | 165 kts | 334° |
| 2026-05-03 21:33 | 26.20091 | -98.25729 | 1917 ft | 176 kts | 319° |
| 2026-05-03 21:33 | 26.20873 | -98.26902 | 2558 ft | 198 kts | 311° |
| 2026-05-03 21:34 | 26.21914 | -98.27973 | 3404 ft | 210 kts | 325° |
| 2026-05-03 21:34 | 26.23110 | -98.28961 | 4344 ft | 218 kts | 325° |
| 2026-05-03 21:34 | 26.24316 | -98.30020 | 5347 ft | 223 kts | 322° |
| 2026-05-03 21:34 | 26.25526 | -98.31119 | 6382 ft | 225 kts | 320° |
| 2026-05-03 21:35 | 26.26745 | -98.32219 | 7376 ft | 226 kts | 319° |
| 2026-05-03 21:35 | 26.27978 | -98.33324 | 8421 ft | 229 kts | 319° |
| 2026-05-03 21:35 | 26.29223 | -98.34443 | 9564 ft | 230 kts | 318° |
| 2026-05-03 21:35 | 26.30460 | -98.35557 | 10630 ft | 227 kts | 318° |
| 2026-05-03 21:36 | 26.31682 | -98.36656 | 11626 ft | 224 kts | 319° |
| 2026-05-03 21:36 | 26.32879 | -98.37735 | 12633 ft | 219 kts | 318° |
| 2026-05-03 21:36 | 26.34054 | -98.38794 | 13654 ft | 215 kts | 317° |
| 2026-05-03 21:36 | 26.35204 | -98.39831 | 14586 ft | 210 kts | 317° |
| 2026-05-03 21:37 | 26.36327 | -98.40843 | 15483 ft | 206 kts | 316° |
| 2026-05-03 21:37 | 26.37430 | -98.41838 | 16367 ft | 202 kts | 316° |
| 2026-05-03 21:37 | 26.38513 | -98.42815 | 17249 ft | 199 kts | 316° |
| 2026-05-03 21:37 | 26.39582 | -98.43781 | 18139 ft | 197 kts | 315° |
| 2026-05-03 21:38 | 26.40640 | -98.44736 | 18940 ft | 195 kts | 315° |
| 2026-05-03 21:38 | 26.41688 | -98.45683 | 19707 ft | 193 kts | 314° |
| 2026-05-03 21:38 | 26.42727 | -98.46621 | 20493 ft | 191 kts | 314° |
| 2026-05-03 21:38 | 26.43755 | -98.47550 | 21293 ft | 189 kts | 313° |
| 2026-05-03 21:39 | 26.44771 | -98.48467 | 22099 ft | 187 kts | 313° |
| 2026-05-03 21:39 | 26.45775 | -98.49375 | 22915 ft | 185 kts | 312° |
| 2026-05-03 21:39 | 26.46770 | -98.50269 | 23730 ft | 182 kts | 312° |
| 2026-05-03 21:39 | 26.47755 | -98.51147 | 24401 ft | 180 kts | 311° |
| 2026-05-03 21:40 | 26.48717 | -98.52007 | 25054 ft | 179 kts | 312° |
| 2026-05-03 21:40 | 26.49682 | -98.52870 | 25699 ft | 177 kts | 312° |
| 2026-05-03 21:40 | 26.50641 | -98.53729 | 26341 ft | 176 kts | 312° |
| 2026-05-03 21:40 | 26.51594 | -98.54582 | 26976 ft | 175 kts | 312° |
| 2026-05-03 21:41 | 26.52542 | -98.55432 | 27601 ft | 174 kts | 312° |
| 2026-05-03 21:41 | 26.53488 | -98.56279 | 28227 ft | 174 kts | 312° |
| 2026-05-03 21:41 | 26.54431 | -98.57123 | 28860 ft | 173 kts | 313° |
| 2026-05-03 21:41 | 26.55371 | -98.57966 | 29475 ft | 173 kts | 313° |
| 2026-05-03 21:42 | 26.56306 | -98.58804 | 30081 ft | 172 kts | 313° |
| 2026-05-03 21:42 | 26.57240 | -98.59641 | 30607 ft | 172 kts | 313° |
| 2026-05-03 21:42 | 26.58171 | -98.60475 | 31096 ft | 171 kts | 313° |
| 2026-05-03 21:43 | 26.60835 | -98.62865 | 32526 ft | 170 kts | 314° |
| 2026-05-03 21:43 | 26.61753 | -98.63690 | 33009 ft | 169 kts | 314° |
| 2026-05-03 21:43 | 26.62669 | -98.64512 | 33484 ft | 169 kts | 314° |
| 2026-05-03 21:44 | 26.63582 | -98.65331 | 33952 ft | 168 kts | 314° |
| 2026-05-03 21:44 | 26.64495 | -98.66151 | 34375 ft | 168 kts | 314° |
| 2026-05-03 21:44 | 26.65407 | -98.66971 | 34780 ft | 168 kts | 314° |
| 2026-05-03 21:44 | 26.66315 | -98.67786 | 35187 ft | 167 kts | 314° |
| 2026-05-03 21:45 | 26.67219 | -98.68598 | 35605 ft | 166 kts | 314° |
| 2026-05-03 21:45 | 26.68115 | -98.69403 | 36019 ft | 165 kts | 313° |
| 2026-05-03 21:45 | 26.69009 | -98.70207 | 36435 ft | 164 kts | 313° |
| 2026-05-03 21:45 | 26.69896 | -98.71004 | 36852 ft | 163 kts | 313° |
| 2026-05-03 21:46 | 26.70779 | -98.71798 | 37250 ft | 162 kts | 312° |
| 2026-05-03 21:46 | 26.71657 | -98.72588 | 37667 ft | 161 kts | 312° |
| 2026-05-03 21:46 | 26.72518 | -98.73362 | 38075 ft | 160 kts | 311° |
| 2026-05-03 21:46 | 26.73384 | -98.74141 | 38496 ft | 159 kts | 311° |
| 2026-05-03 21:47 | 26.74245 | -98.74916 | 38895 ft | 158 kts | 311° |
| 2026-05-03 21:47 | 26.75099 | -98.75685 | 39219 ft | 158 kts | 311° |
| 2026-05-03 21:47 | 26.75957 | -98.76459 | 39507 ft | 159 kts | 310° |
| 2026-05-03 21:47 | 26.76821 | -98.77238 | 39773 ft | 160 kts | 310° |
| 2026-05-03 21:48 | 26.77694 | -98.78024 | 40036 ft | 162 kts | 310° |
| 2026-05-03 21:48 | 26.78578 | -98.78821 | 40301 ft | 164 kts | 310° |
| 2026-05-03 21:48 | 26.79468 | -98.79623 | 40553 ft | 165 kts | 309° |
| 2026-05-03 21:48 | 26.80369 | -98.80435 | 40796 ft | 167 kts | 309° |
| 2026-05-03 21:49 | 26.81278 | -98.81255 | 41033 ft | 169 kts | 309° |
| 2026-05-03 21:49 | 26.82198 | -98.82084 | 41271 ft | 171 kts | 309° |
| 2026-05-03 21:49 | 26.83126 | -98.82921 | 41501 ft | 172 kts | 309° |
| 2026-05-03 21:49 | 26.84066 | -98.83769 | 41724 ft | 175 kts | 309° |
| 2026-05-03 21:50 | 26.85038 | -98.84653 | 41747 ft | 186 kts | 309° |
| 2026-05-03 21:50 | 26.86072 | -98.85590 | 41781 ft | 197 kts | 310° |
| 2026-05-03 21:50 | 26.87174 | -98.86584 | 41815 ft | 209 kts | 310° |
| 2026-05-03 21:50 | 26.88337 | -98.87634 | 41856 ft | 221 kts | 310° |
| 2026-05-03 21:51 | 26.89568 | -98.88745 | 41950 ft | 233 kts | 311° |
| 2026-05-03 21:51 | 26.90861 | -98.89912 | 42001 ft | 245 kts | 312° |
| 2026-05-03 21:51 | 26.92219 | -98.91139 | 42050 ft | 256 kts | 312° |
| 2026-05-03 21:51 | 26.93639 | -98.92422 | 42103 ft | 268 kts | 312° |
| 2026-05-03 21:52 | 26.95123 | -98.93763 | 42153 ft | 280 kts | 313° |
| 2026-05-03 21:52 | 26.96663 | -98.95156 | 42252 ft | 289 kts | 313° |
| 2026-05-03 21:52 | 26.98253 | -98.96592 | 42400 ft | 298 kts | 313° |
| 2026-05-03 21:52 | 26.99885 | -98.98069 | 42572 ft | 305 kts | 313° |
| 2026-05-03 21:53 | 27.01549 | -98.99575 | 42773 ft | 311 kts | 313° |
| 2026-05-03 21:53 | 27.03247 | -99.01114 | 42994 ft | 316 kts | 313° |
| 2026-05-03 21:53 | 27.04972 | -99.02678 | 43142 ft | 324 kts | 313° |
| 2026-05-03 21:53 | 27.06753 | -99.04296 | 43139 ft | 335 kts | 313° |
| 2026-05-03 21:54 | 27.10488 | -99.07684 | 43144 ft | 355 kts | 314° |
| 2026-05-03 21:54 | 27.14435 | -99.11268 | 43132 ft | 374 kts | 314° |
| 2026-05-03 21:55 | 27.18581 | -99.15036 | 43147 ft | 393 kts | 314° |
| 2026-05-03 21:55 | 27.22921 | -99.18984 | 43132 ft | 409 kts | 314° |
| 2026-05-03 21:56 | 27.27427 | -99.23088 | 43132 ft | 424 kts | 315° |
| 2026-05-03 21:56 | 27.32029 | -99.27280 | 43130 ft | 430 kts | 315° |
| 2026-05-03 21:57 | 27.36696 | -99.31543 | 43123 ft | 433 kts | 315° |
| 2026-05-03 21:57 | 27.41370 | -99.35813 | 43121 ft | 433 kts | 315° |
| 2026-05-03 21:58 | 27.46042 | -99.40089 | 43132 ft | 433 kts | 315° |
| 2026-05-03 21:58 | 27.51022 | -99.43988 | 43132 ft | 440 kts | 321° |
| 2026-05-03 21:59 | 27.56189 | -99.47662 | 43124 ft | 439 kts | 320° |
| 2026-05-03 21:59 | 27.61360 | -99.51332 | 43128 ft | 439 kts | 321° |
| 2026-05-03 22:00 | 27.66525 | -99.55000 | 43123 ft | 439 kts | 321° |
| 2026-05-03 22:00 | 27.71689 | -99.58676 | 43120 ft | 439 kts | 321° |
| 2026-05-03 22:01 | 27.76859 | -99.62357 | 43100 ft | 437 kts | 321° |
| 2026-05-03 22:01 | 27.81999 | -99.66024 | 43104 ft | 437 kts | 321° |
| 2026-05-03 22:02 | 27.87151 | -99.69700 | 43103 ft | 438 kts | 321° |
| 2026-05-03 22:02 | 27.92297 | -99.73379 | 43105 ft | 438 kts | 321° |
| 2026-05-03 22:03 | 27.97446 | -99.77063 | 43108 ft | 438 kts | 321° |
| 2026-05-03 22:03 | 28.02590 | -99.80748 | 43132 ft | 438 kts | 321° |
| 2026-05-03 22:04 | 28.07727 | -99.84431 | 43101 ft | 437 kts | 321° |
| 2026-05-03 22:04 | 28.12873 | -99.88127 | 43094 ft | 438 kts | 321° |
| 2026-05-03 22:05 | 28.18017 | -99.91823 | 43098 ft | 438 kts | 321° |
| 2026-05-03 22:05 | 28.23157 | -99.95523 | 43097 ft | 438 kts | 321° |
| 2026-05-03 22:06 | 28.28266 | -99.99203 | 43094 ft | 438 kts | 321° |
| 2026-05-03 22:06 | 28.33405 | -100.02909 | 43104 ft | 436 kts | 321° |
| 2026-05-03 22:07 | 28.38535 | -100.06615 | 43104 ft | 437 kts | 320° |
| 2026-05-03 22:07 | 28.43660 | -100.10320 | 43103 ft | 437 kts | 320° |
| 2026-05-03 22:08 | 28.47924 | -100.13407 | 43102 ft | 437 kts | 320° |
| 2026-05-03 22:08 | 28.53053 | -100.17122 | 43102 ft | 437 kts | 320° |
| 2026-05-03 22:09 | 28.58179 | -100.20841 | 43107 ft | 437 kts | 320° |
| 2026-05-03 22:10 | 28.65831 | -100.26400 | 43092 ft | 435 kts | 320° |
| 2026-05-03 22:10 | 28.70932 | -100.30110 | 43092 ft | 435 kts | 320° |
| 2026-05-03 22:11 | 28.76037 | -100.33829 | 43118 ft | 436 kts | 320° |
| 2026-05-03 22:11 | 28.81140 | -100.37549 | 43115 ft | 436 kts | 320° |
| 2026-05-03 22:12 | 28.86247 | -100.41278 | 43088 ft | 435 kts | 320° |
| 2026-05-03 22:12 | 28.91314 | -100.44981 | 43079 ft | 433 kts | 320° |
| 2026-05-03 22:13 | 28.96388 | -100.48695 | 43073 ft | 433 kts | 320° |
| 2026-05-03 22:13 | 29.01459 | -100.52410 | 43074 ft | 433 kts | 320° |
| 2026-05-03 22:14 | 29.06531 | -100.56131 | 43074 ft | 433 kts | 320° |
| 2026-05-03 22:14 | 29.11607 | -100.59859 | 43058 ft | 434 kts | 320° |
| 2026-05-03 22:15 | 29.16668 | -100.63577 | 43058 ft | 431 kts | 320° |
| 2026-05-03 22:15 | 29.21712 | -100.67295 | 43051 ft | 432 kts | 320° |
| 2026-05-03 22:16 | 29.26768 | -100.71019 | 43057 ft | 432 kts | 320° |
| 2026-05-03 22:16 | 29.31819 | -100.74747 | 43053 ft | 432 kts | 320° |
| 2026-05-03 22:17 | 29.36557 | -100.78859 | 43041 ft | 421 kts | 309° |
| 2026-05-03 22:17 | 29.40238 | -100.84027 | 43057 ft | 418 kts | 304° |
| 2026-05-03 22:18 | 29.43845 | -100.89230 | 43082 ft | 417 kts | 304° |
| 2026-05-03 22:18 | 29.47435 | -100.94453 | 43077 ft | 417 kts | 304° |
| 2026-05-03 22:19 | 29.51033 | -100.99675 | 43072 ft | 417 kts | 304° |
| 2026-05-03 22:19 | 29.54599 | -101.04865 | 43064 ft | 417 kts | 304° |
| 2026-05-03 22:20 | 29.58192 | -101.10099 | 43062 ft | 417 kts | 304° |
| 2026-05-03 22:20 | 29.61780 | -101.15334 | 43066 ft | 417 kts | 304° |
| 2026-05-03 22:21 | 29.65367 | -101.20572 | 43058 ft | 416 kts | 304° |
| 2026-05-03 22:21 | 29.68934 | -101.25788 | 43059 ft | 416 kts | 304° |
| 2026-05-03 22:22 | 29.72520 | -101.31040 | 43045 ft | 418 kts | 304° |
| 2026-05-03 22:22 | 29.76116 | -101.36312 | 43064 ft | 419 kts | 304° |
| 2026-05-03 22:23 | 29.79710 | -101.41588 | 43065 ft | 418 kts | 304° |
| 2026-05-03 22:23 | 29.83300 | -101.46866 | 43068 ft | 419 kts | 304° |
| 2026-05-03 22:24 | 29.86888 | -101.52146 | 43070 ft | 418 kts | 304° |
| 2026-05-03 22:24 | 29.90473 | -101.57433 | 43063 ft | 417 kts | 303° |
| 2026-05-03 22:25 | 29.93382 | -101.63146 | 43057 ft | 413 kts | 295° |
| 2026-05-03 22:25 | 29.96073 | -101.68997 | 43047 ft | 413 kts | 295° |
| 2026-05-03 22:26 | 29.98753 | -101.74864 | 43054 ft | 413 kts | 295° |
| 2026-05-03 22:26 | 30.01433 | -101.80731 | 43043 ft | 413 kts | 295° |
| 2026-05-03 22:27 | 30.04109 | -101.86600 | 43049 ft | 414 kts | 295° |
| 2026-05-03 22:27 | 30.06787 | -101.92481 | 43044 ft | 414 kts | 295° |
| 2026-05-03 22:28 | 30.09461 | -101.98361 | 43044 ft | 413 kts | 295° |
| 2026-05-03 22:28 | 30.12129 | -102.04241 | 43043 ft | 413 kts | 295° |
| 2026-05-03 22:29 | 30.14801 | -102.10135 | 43045 ft | 414 kts | 295° |
| 2026-05-03 22:29 | 30.17469 | -102.16032 | 43039 ft | 414 kts | 295° |
| 2026-05-03 22:30 | 30.20135 | -102.21930 | 43040 ft | 414 kts | 295° |
| 2026-05-03 22:30 | 30.22795 | -102.27827 | 43042 ft | 414 kts | 295° |
| 2026-05-03 22:31 | 30.25455 | -102.33732 | 43039 ft | 415 kts | 295° |
| 2026-05-03 22:31 | 30.28116 | -102.39647 | 43040 ft | 414 kts | 295° |
| 2026-05-03 22:32 | 30.30778 | -102.45576 | 43042 ft | 416 kts | 295° |
| 2026-05-03 22:32 | 30.33439 | -102.51510 | 43030 ft | 415 kts | 295° |
| 2026-05-03 22:33 | 30.36082 | -102.57415 | 43036 ft | 415 kts | 295° |
| 2026-05-03 22:33 | 30.38729 | -102.63336 | 43035 ft | 414 kts | 295° |
| 2026-05-03 22:34 | 30.41374 | -102.69262 | 43031 ft | 414 kts | 295° |
| 2026-05-03 22:34 | 30.44017 | -102.75193 | 43030 ft | 414 kts | 295° |
| 2026-05-03 22:35 | 30.46657 | -102.81126 | 43029 ft | 415 kts | 295° |
| 2026-05-03 22:35 | 30.49296 | -102.87068 | 43033 ft | 415 kts | 294° |
| 2026-05-03 22:36 | 30.51936 | -102.93020 | 43033 ft | 414 kts | 294° |
| 2026-05-03 22:36 | 30.54569 | -102.98965 | 43023 ft | 414 kts | 294° |
| 2026-05-03 22:37 | 30.57198 | -103.04911 | 43018 ft | 415 kts | 294° |
| 2026-05-03 22:37 | 30.59824 | -103.10859 | 43007 ft | 411 kts | 294° |
| 2026-05-03 22:38 | 30.62433 | -103.16779 | 43006 ft | 413 kts | 294° |
| 2026-05-03 22:38 | 30.65046 | -103.22717 | 42992 ft | 413 kts | 294° |
| 2026-05-03 22:39 | 30.67641 | -103.28622 | 42993 ft | 413 kts | 294° |
| 2026-05-03 22:39 | 30.70248 | -103.34564 | 42991 ft | 413 kts | 294° |
| 2026-05-03 22:40 | 30.72854 | -103.40515 | 42974 ft | 413 kts | 294° |
| 2026-05-03 22:40 | 30.75475 | -103.46509 | 42976 ft | 413 kts | 294° |
| 2026-05-03 22:41 | 30.78060 | -103.52428 | 42983 ft | 415 kts | 294° |
| 2026-05-03 22:41 | 30.80671 | -103.58418 | 43009 ft | 415 kts | 294° |
| 2026-05-03 22:42 | 30.83262 | -103.64370 | 42981 ft | 412 kts | 294° |
| 2026-05-03 22:42 | 30.85847 | -103.70322 | 42977 ft | 412 kts | 294° |
| 2026-05-03 22:43 | 30.88432 | -103.76277 | 42975 ft | 412 kts | 294° |
| 2026-05-03 22:43 | 30.91013 | -103.82239 | 42990 ft | 412 kts | 294° |
| 2026-05-03 22:44 | 30.93590 | -103.88197 | 42987 ft | 411 kts | 294° |
| 2026-05-03 22:44 | 30.96164 | -103.94158 | 42998 ft | 412 kts | 294° |
| 2026-05-03 22:45 | 30.98736 | -104.00125 | 42994 ft | 412 kts | 294° |
| 2026-05-03 22:45 | 31.00011 | -104.03082 | 42929 ft | 398 kts | 294° |
| 2026-05-03 22:45 | 31.01226 | -104.05899 | 42452 ft | 381 kts | 293° |
| 2026-05-03 22:45 | 31.02393 | -104.08614 | 41938 ft | 368 kts | 293° |
| 2026-05-03 22:46 | 31.03520 | -104.11244 | 41400 ft | 357 kts | 293° |
| 2026-05-03 22:46 | 31.04620 | -104.13809 | 40890 ft | 351 kts | 293° |
| 2026-05-03 22:46 | 31.05709 | -104.16351 | 40401 ft | 351 kts | 293° |
| 2026-05-03 22:46 | 31.06807 | -104.18914 | 39932 ft | 355 kts | 293° |
| 2026-05-03 22:47 | 31.07913 | -104.21495 | 39488 ft | 356 kts | 293° |
| 2026-05-03 22:47 | 31.09022 | -104.24083 | 39038 ft | 358 kts | 292° |
| 2026-05-03 22:47 | 31.10135 | -104.26685 | 38599 ft | 358 kts | 292° |
| 2026-05-03 22:47 | 31.11247 | -104.29287 | 38087 ft | 359 kts | 292° |
| 2026-05-03 22:48 | 31.12366 | -104.31909 | 37581 ft | 363 kts | 292° |
| 2026-05-03 22:48 | 31.13494 | -104.34552 | 37090 ft | 365 kts | 293° |
| 2026-05-03 22:48 | 31.14631 | -104.37216 | 36596 ft | 368 kts | 293° |
| 2026-05-03 22:48 | 31.15760 | -104.39865 | 36136 ft | 371 kts | 293° |
| 2026-05-03 22:49 | 31.16929 | -104.42608 | 35669 ft | 374 kts | 293° |
| 2026-05-03 22:49 | 31.18077 | -104.45306 | 35204 ft | 377 kts | 293° |
| 2026-05-03 22:49 | 31.19249 | -104.48060 | 34735 ft | 381 kts | 293° |
| 2026-05-03 22:49 | 31.20429 | -104.50837 | 34270 ft | 383 kts | 293° |
| 2026-05-03 22:50 | 31.21617 | -104.53632 | 33786 ft | 385 kts | 293° |
| 2026-05-03 22:50 | 31.22812 | -104.56449 | 33267 ft | 388 kts | 293° |
| 2026-05-03 22:50 | 31.24012 | -104.59279 | 32790 ft | 390 kts | 293° |
| 2026-05-03 22:50 | 31.25214 | -104.62115 | 32292 ft | 391 kts | 294° |
| 2026-05-03 22:51 | 31.26427 | -104.64982 | 31799 ft | 395 kts | 294° |
| 2026-05-03 22:51 | 31.27652 | -104.67877 | 31318 ft | 398 kts | 294° |
| 2026-05-03 22:51 | 31.28884 | -104.70791 | 30831 ft | 402 kts | 294° |
| 2026-05-03 22:51 | 31.30127 | -104.73735 | 30312 ft | 405 kts | 294° |
| 2026-05-03 22:52 | 31.31369 | -104.76673 | 29683 ft | 401 kts | 294° |
| 2026-05-03 22:52 | 31.32597 | -104.79582 | 29016 ft | 397 kts | 293° |
| 2026-05-03 22:52 | 31.33812 | -104.82466 | 28361 ft | 393 kts | 293° |
| 2026-05-03 22:52 | 31.35015 | -104.85326 | 27722 ft | 390 kts | 293° |
| 2026-05-03 22:53 | 31.36210 | -104.88164 | 27118 ft | 388 kts | 292° |
| 2026-05-03 22:53 | 31.36995 | -104.90033 | 26692 ft | 385 kts | 292° |
| 2026-05-03 22:53 | 31.38172 | -104.92834 | 26089 ft | 382 kts | 292° |
| 2026-05-03 22:53 | 31.39339 | -104.95614 | 25446 ft | 375 kts | 293° |
| 2026-05-03 22:54 | 31.40472 | -104.98310 | 24772 ft | 367 kts | 293° |
| 2026-05-03 22:54 | 31.41590 | -105.00984 | 24110 ft | 365 kts | 293° |
| 2026-05-03 22:54 | 31.42706 | -105.03651 | 23440 ft | 364 kts | 293° |
| 2026-05-03 22:54 | 31.43820 | -105.06308 | 22652 ft | 362 kts | 293° |
| 2026-05-03 22:55 | 31.44926 | -105.08952 | 21901 ft | 362 kts | 293° |
| 2026-05-03 22:55 | 31.46032 | -105.11598 | 21150 ft | 361 kts | 293° |
| 2026-05-03 22:55 | 31.47136 | -105.14244 | 20417 ft | 362 kts | 293° |
| 2026-05-03 22:55 | 31.48243 | -105.16896 | 19704 ft | 362 kts | 294° |
| 2026-05-03 22:56 | 31.49350 | -105.19549 | 18999 ft | 363 kts | 294° |
| 2026-05-03 22:56 | 31.50458 | -105.22208 | 18313 ft | 363 kts | 294° |
| 2026-05-03 22:56 | 31.51564 | -105.24862 | 17545 ft | 361 kts | 294° |
| 2026-05-03 22:56 | 31.52659 | -105.27491 | 16772 ft | 357 kts | 294° |
| 2026-05-03 22:57 | 31.53742 | -105.30095 | 16036 ft | 354 kts | 294° |
| 2026-05-03 22:57 | 31.54816 | -105.32677 | 15475 ft | 351 kts | 294° |
| 2026-05-03 22:57 | 31.55878 | -105.35238 | 14965 ft | 347 kts | 294° |
| 2026-05-03 22:57 | 31.56906 | -105.37776 | 14477 ft | 340 kts | 291° |
| 2026-05-03 22:58 | 31.57661 | -105.40386 | 14013 ft | 337 kts | 286° |
| 2026-05-03 22:58 | 31.58351 | -105.43001 | 13532 ft | 335 kts | 286° |
| 2026-05-03 22:58 | 31.59063 | -105.45600 | 13054 ft | 334 kts | 287° |
| 2026-05-03 22:58 | 31.59782 | -105.48145 | 12679 ft | 332 kts | 287° |
| 2026-05-03 22:59 | 31.60495 | -105.50711 | 12288 ft | 330 kts | 286° |
| 2026-05-03 22:59 | 31.61197 | -105.53274 | 11932 ft | 329 kts | 286° |
| 2026-05-03 22:59 | 31.61900 | -105.55833 | 11590 ft | 329 kts | 286° |
| 2026-05-03 22:59 | 31.62604 | -105.58387 | 11252 ft | 329 kts | 286° |
| 2026-05-03 23:00 | 31.63310 | -105.60946 | 10914 ft | 330 kts | 286° |
| 2026-05-03 23:00 | 31.64016 | -105.63511 | 10584 ft | 331 kts | 286° |
| 2026-05-03 23:00 | 31.64722 | -105.66083 | 10255 ft | 332 kts | 285° |
| 2026-05-03 23:00 | 31.65415 | -105.68603 | 9926 ft | 311 kts | 285° |
| 2026-05-03 23:01 | 31.66048 | -105.70901 | 9830 ft | 283 kts | 285° |
| 2026-05-03 23:01 | 31.66648 | -105.73099 | 9828 ft | 283 kts | 284° |
| 2026-05-03 23:01 | 31.67247 | -105.75304 | 9828 ft | 284 kts | 284° |
| 2026-05-03 23:01 | 31.67870 | -105.77517 | 9831 ft | 286 kts | 285° |
| 2026-05-03 23:02 | 31.68432 | -105.79742 | 9831 ft | 283 kts | 281° |
| 2026-05-03 23:02 | 31.68841 | -105.82005 | 9845 ft | 284 kts | 278° |
| 2026-05-03 23:02 | 31.69216 | -105.84275 | 9849 ft | 283 kts | 278° |
| 2026-05-03 23:02 | 31.69591 | -105.86592 | 9856 ft | 289 kts | 278° |
| 2026-05-03 23:03 | 31.69972 | -105.88920 | 9862 ft | 291 kts | 278° |
| 2026-05-03 23:03 | 31.70356 | -105.91252 | 9861 ft | 291 kts | 278° |
| 2026-05-03 23:03 | 31.70738 | -105.93584 | 9847 ft | 291 kts | 278° |
| 2026-05-03 23:03 | 31.71118 | -105.95922 | 9849 ft | 291 kts | 278° |
| 2026-05-03 23:04 | 31.71500 | -105.98251 | 9865 ft | 290 kts | 278° |
| 2026-05-03 23:04 | 31.71881 | -106.00583 | 9875 ft | 292 kts | 278° |
| 2026-05-03 23:04 | 31.72265 | -106.02927 | 9882 ft | 292 kts | 278° |
| 2026-05-03 23:04 | 31.72652 | -106.05268 | 9891 ft | 292 kts | 278° |
| 2026-05-03 23:05 | 31.73042 | -106.07613 | 9896 ft | 292 kts | 278° |
| 2026-05-03 23:05 | 31.73434 | -106.09954 | 9907 ft | 292 kts | 278° |
| 2026-05-03 23:05 | 31.73826 | -106.12293 | 9919 ft | 292 kts | 278° |
| 2026-05-03 23:05 | 31.74217 | -106.14638 | 9928 ft | 292 kts | 278° |
| 2026-05-03 23:06 | 31.74606 | -106.16977 | 9939 ft | 292 kts | 278° |
| 2026-05-03 23:06 | 31.75002 | -106.19343 | 9867 ft | 298 kts | 278° |
| 2026-05-03 23:06 | 31.75388 | -106.21630 | 9499 ft | 285 kts | 278° |
| 2026-05-03 23:06 | 31.75773 | -106.23905 | 9062 ft | 283 kts | 278° |
| 2026-05-03 23:07 | 31.76155 | -106.26175 | 8624 ft | 283 kts | 278° |
| 2026-05-03 23:07 | 31.76529 | -106.28438 | 8199 ft | 281 kts | 278° |
| 2026-05-03 23:07 | 31.76891 | -106.30689 | 7983 ft | 280 kts | 278° |
| 2026-05-03 23:07 | 31.77252 | -106.32964 | 7985 ft | 291 kts | 278° |
| 2026-05-03 23:08 | 31.77616 | -106.35265 | 7981 ft | 286 kts | 278° |
| 2026-05-03 23:08 | 31.77977 | -106.37538 | 7975 ft | 279 kts | 278° |
| 2026-05-03 23:08 | 31.78326 | -106.39729 | 7977 ft | 265 kts | 278° |
| 2026-05-03 23:08 | 31.78653 | -106.41757 | 7963 ft | 239 kts | 278° |
| 2026-05-03 23:09 | 31.78951 | -106.43582 | 7965 ft | 217 kts | 278° |
| 2026-05-03 23:09 | 31.79258 | -106.45247 | 7920 ft | 202 kts | 282° |
| 2026-05-03 23:09 | 31.79648 | -106.46775 | 7726 ft | 195 kts | 286° |
| 2026-05-03 23:09 | 31.80064 | -106.48259 | 7302 ft | 187 kts | 287° |
| 2026-05-03 23:10 | 31.80534 | -106.49718 | 6555 ft | 197 kts | 290° |
| 2026-05-03 23:10 | 31.81101 | -106.51188 | 5970 ft | 196 kts | 294° |
| 2026-05-03 23:10 | 31.81700 | -106.52614 | 5578 ft | 188 kts | 293° |
| 2026-05-03 23:10 | 31.82308 | -106.53869 | 5503 ft | 169 kts | 296° |
| 2026-05-03 23:11 | 31.82969 | -106.55003 | 5288 ft | 165 kts | 302° |
| 2026-05-03 23:11 | 31.83527 | -106.56162 | 5139 ft | 158 kts | 291° |
| 2026-05-03 23:11 | 31.83892 | -106.57335 | 5061 ft | 149 kts | 281° |
| 2026-05-03 23:11 | 31.84219 | -106.58483 | 5088 ft | 152 kts | 283° |
| 2026-05-03 23:12 | 31.84584 | -106.59664 | 5204 ft | 154 kts | 286° |
| 2026-05-03 23:12 | 31.84939 | -106.60861 | 5295 ft | 157 kts | 286° |
| 2026-05-03 23:12 | 31.85320 | -106.62106 | 5241 ft | 164 kts | 288° |
| 2026-05-03 23:12 | 31.85703 | -106.63299 | 5224 ft | 149 kts | 288° |
| 2026-05-03 23:13 | 31.86076 | -106.64406 | 5149 ft | 143 kts | 288° |
| 2026-05-03 23:13 | 31.86431 | -106.65509 | 4881 ft | 147 kts | 287° |
| 2026-05-03 23:13 | 31.86799 | -106.66590 | 4579 ft | 137 kts | 289° |
| 2026-05-03 23:13 | 31.87132 | -106.67614 | 4364 ft | 130 kts | 289° |
| 2026-05-03 23:14 | 31.87450 | -106.68590 | 4206 ft | 127 kts | 290° |
| 2026-05-03 23:14 | 31.87776 | -106.69501 | 4129 ft | 110 kts | 287° |
| 2026-05-03 23:14 | 31.88001 | -106.70192 | 4122 ft | 55 kts | 293° |
| 2026-05-03 23:14 | 31.88000 | -106.70373 | 4118 ft | 12 kts | 208° |
| 2026-05-03 23:15 | 31.87981 | -106.70382 | 4120 ft | 0 kts | 202° |
| 2026-05-03 23:15 | 31.87970 | -106.70387 | 4119 ft | 8 kts | 200° |
| 2026-05-03 23:15 | 31.87875 | -106.70430 | 4120 ft | 15 kts | 196° |
| 2026-05-03 23:15 | 31.87795 | -106.70304 | 4117 ft | 29 kts | 115° |
| 2026-05-03 23:16 | 31.87710 | -106.70183 | 4114 ft | 10 kts | 197° |
| 2026-05-03 23:16 | 31.87701 | -106.70187 | 4118 ft | 0 kts | 201° |